createdAt,value
2022-11-09T00:01:40.597Z,97332.56
2022-11-09T00:04:09.145Z,97335.84
2022-11-09T00:06:36.084Z,97335.41
2022-11-09T00:09:07.924Z,97341.72
2022-11-09T00:11:36.123Z,97345.38
2022-11-09T00:14:02.685Z,97339.91
2022-11-09T00:16:29.223Z,97334.75
2022-11-09T00:18:55.748Z,97331.13
2022-11-09T00:21:25.320Z,97328.13
2022-11-09T00:23:52.475Z,97321.75
2022-11-09T00:26:20.089Z,97321.22
2022-11-09T00:28:47.150Z,97320.41
2022-11-09T00:31:15.687Z,97324.78
2022-11-09T00:33:42.220Z,97321.81
2022-11-09T00:36:11.854Z,97331.41
2022-11-09T00:38:40.384Z,97331.66
2022-11-09T00:41:08.651Z,97331.66
2022-11-09T00:43:35.252Z,97320.19
2022-11-09T00:46:02.162Z,97327.56
2022-11-09T00:48:29.415Z,97325.50
2022-11-09T00:50:57.253Z,97327.69
2022-11-09T00:53:24.450Z,97315.56
2022-11-09T00:55:59.696Z,97317.28
2022-11-09T00:58:28.097Z,97311.13
2022-11-09T01:00:56.232Z,97317.88
2022-11-09T01:03:23.619Z,97309.09
2022-11-09T01:05:50.703Z,97307.69
2022-11-09T01:08:17.763Z,97307.66
2022-11-09T01:10:46.247Z,97305.97
2022-11-09T01:13:16.468Z,97301.78
2022-11-09T01:15:44.972Z,97295.09
2022-11-09T01:18:12.160Z,97296.22
2022-11-09T01:20:39.819Z,97286.34
2022-11-09T01:23:06.366Z,97265.44
2022-11-09T01:25:33.128Z,97251.06
2022-11-09T01:27:59.919Z,97242.63
2022-11-09T01:30:27.848Z,97242.50
2022-11-09T01:32:54.488Z,97246.09
2022-11-09T01:35:21.033Z,97253.22
2022-11-09T01:37:47.551Z,97265.78
2022-11-09T01:40:14.119Z,97266.28
2022-11-09T01:42:40.694Z,97266.00
2022-11-09T01:45:29.500Z,97282.00
2022-11-09T01:48:04.465Z,97278.44
2022-11-09T01:50:41.202Z,97273.34
2022-11-09T01:53:11.997Z,97280.56
2022-11-09T01:55:39.296Z,97288.00
2022-11-09T01:58:08.619Z,97297.25
2022-11-09T02:00:41.998Z,97291.81
2022-11-09T02:03:14.683Z,97294.09
2022-11-09T02:05:42.534Z,97291.31
2022-11-09T02:08:11.093Z,97291.97
2022-11-09T02:10:43.490Z,97286.47
2022-11-09T02:13:13.498Z,97285.59
2022-11-09T02:15:45.455Z,97282.53
2022-11-09T02:18:12.716Z,97280.03
2022-11-09T02:20:48.788Z,97277.03
2022-11-09T02:23:15.957Z,97283.94
2022-11-09T02:25:46.598Z,97283.84
2022-11-09T02:28:14.269Z,97286.81
2022-11-09T02:30:42.732Z,97289.25
2022-11-09T02:33:09.258Z,97282.38
2022-11-09T02:35:35.778Z,97279.63
2022-11-09T02:38:03.781Z,97281.03
2022-11-09T02:40:35.426Z,97279.84
2022-11-09T02:43:02.703Z,97274.94
2022-11-09T02:45:29.247Z,97266.91
2022-11-09T02:47:55.830Z,97255.16
2022-11-09T02:50:22.526Z,97251.31
2022-11-09T02:52:49.157Z,97249.75
2022-11-09T02:55:17.069Z,97259.06
2022-11-09T02:57:43.640Z,97278.63
2022-11-09T03:00:11.286Z,97270.16
2022-11-09T03:02:38.054Z,97262.72
2022-11-09T03:05:05.312Z,97264.78
2022-11-09T03:07:31.831Z,97273.56
2022-11-09T03:09:58.388Z,97269.25
2022-11-09T03:12:26.267Z,97283.06
2022-11-09T03:14:52.916Z,97286.75
2022-11-09T03:17:19.452Z,97278.03
2022-11-09T03:19:45.972Z,97279.94
2022-11-09T03:22:12.507Z,97271.19
2022-11-09T03:24:39.047Z,97268.97
2022-11-09T03:27:05.611Z,97268.06
2022-11-09T03:29:33.566Z,97266.44
2022-11-09T03:32:00.205Z,97273.53
2022-11-09T03:34:26.729Z,97276.63
2022-11-09T03:36:53.811Z,97272.72
2022-11-09T03:39:20.356Z,97287.16
2022-11-09T03:41:46.923Z,97286.94
2022-11-09T03:44:13.432Z,97286.31
2022-11-09T03:46:41.462Z,97281.59
2022-11-09T03:49:08.087Z,97283.19
2022-11-09T03:51:34.623Z,97280.38
2022-11-09T03:54:01.162Z,97276.59
2022-11-09T03:56:27.717Z,97286.69
2022-11-09T03:58:54.342Z,97284.84
2022-11-09T04:01:20.972Z,97288.19
2022-11-09T04:03:48.918Z,97288.41
2022-11-09T04:06:15.423Z,97288.75
2022-11-09T04:08:44.654Z,97295.72
2022-11-09T04:11:13.623Z,97298.78
2022-11-09T04:13:40.135Z,97301.59
2022-11-09T04:16:07.044Z,97295.16
2022-11-09T04:18:33.599Z,97300.13
2022-11-09T04:21:01.454Z,97297.31
2022-11-09T04:23:28.024Z,97288.06
2022-11-09T04:25:54.571Z,97281.56
2022-11-09T04:28:21.238Z,97273.94
2022-11-09T04:30:47.784Z,97273.13
2022-11-09T04:33:14.352Z,97269.94
2022-11-09T04:35:40.908Z,97276.31
2022-11-09T04:38:12.187Z,97267.63
2022-11-09T04:40:39.474Z,97262.34
2022-11-09T04:43:10.792Z,97266.50
2022-11-09T04:45:37.350Z,97275.06
2022-11-09T04:48:06.026Z,97272.53
2022-11-09T04:50:33.118Z,97271.19
2022-11-09T04:53:09.786Z,97265.31
2022-11-09T04:55:36.491Z,97265.03
2022-11-09T04:58:03.550Z,97264.56
2022-11-09T05:00:30.489Z,97260.34
2022-11-09T05:03:00.009Z,97263.63
2022-11-09T05:05:27.032Z,97264.72
2022-11-09T05:07:53.592Z,97252.72
2022-11-09T05:10:21.492Z,97245.38
2022-11-09T05:12:48.072Z,97252.78
2022-11-09T05:15:14.664Z,97260.66
2022-11-09T05:17:41.259Z,97258.13
2022-11-09T05:20:08.794Z,97279.34
2022-11-09T05:22:39.924Z,97292.03
2022-11-09T05:25:07.081Z,97290.34
2022-11-09T05:27:35.124Z,97296.50
2022-11-09T05:30:01.701Z,97298.66
2022-11-09T05:32:28.237Z,97302.34
2022-11-09T05:34:54.768Z,97303.81
2022-11-09T05:37:21.305Z,97301.06
2022-11-09T05:39:48.004Z,97298.59
2022-11-09T05:42:14.751Z,97301.41
2022-11-09T05:44:42.647Z,97303.19
2022-11-09T05:47:09.193Z,97309.88
2022-11-09T05:49:35.749Z,97306.78
2022-11-09T05:52:02.265Z,97293.94
2022-11-09T05:54:28.787Z,97291.59
2022-11-09T05:56:55.325Z,97294.34
2022-11-09T05:59:21.887Z,97299.66
2022-11-09T06:01:49.861Z,97305.44
2022-11-09T06:04:16.444Z,97309.63
2022-11-09T06:06:43.506Z,97309.09
2022-11-09T06:09:10.115Z,97323.63
2022-11-09T06:11:36.672Z,97328.50
2022-11-09T06:14:03.231Z,97332.38
2022-11-09T06:16:29.828Z,97327.53
2022-11-09T06:18:57.741Z,97330.00
2022-11-09T06:21:24.259Z,97329.75
2022-11-09T06:23:50.789Z,97334.84
2022-11-09T06:26:17.329Z,97334.84
2022-11-09T06:28:43.894Z,97326.59
2022-11-09T06:31:14.619Z,97326.31
2022-11-09T06:33:41.444Z,97325.56
2022-11-09T06:36:10.444Z,97339.91
2022-11-09T06:38:36.996Z,97336.47
2022-11-09T06:41:03.563Z,97340.91
2022-11-09T06:43:30.122Z,97332.25
2022-11-09T06:45:56.885Z,97356.09
2022-11-09T06:48:23.676Z,97370.69
2022-11-09T06:50:50.263Z,97371.06
2022-11-09T06:53:18.882Z,97376.91
2022-11-09T06:55:50.332Z,97383.53
2022-11-09T06:58:17.911Z,97395.44
2022-11-09T07:00:45.267Z,97403.41
2022-11-09T07:03:14.683Z,97402.81
2022-11-09T07:05:41.523Z,97415.75
2022-11-09T07:08:08.049Z,97412.75
2022-11-09T07:10:36.521Z,97422.38
2022-11-09T07:13:03.146Z,97408.59
2022-11-09T07:15:29.820Z,97413.75
2022-11-09T07:17:56.733Z,97415.38
2022-11-09T07:20:23.288Z,97423.44
2022-11-09T07:22:50.352Z,97430.44
2022-11-09T07:25:17.377Z,97427.31
2022-11-09T07:27:45.465Z,97440.72
2022-11-09T07:30:12.933Z,97436.50
2022-11-09T07:33:07.473Z,97431.22
2022-11-09T07:35:26.797Z,97425.81
2022-11-09T07:37:53.354Z,97432.81
2022-11-09T07:40:20.434Z,97447.00
2022-11-09T07:42:48.346Z,97450.50
2022-11-09T07:45:15.089Z,97445.47
2022-11-09T07:47:41.650Z,97455.38
2022-11-09T07:50:08.809Z,97452.44
2022-11-09T07:52:35.327Z,97460.66
2022-11-09T07:55:01.871Z,97471.59
2022-11-09T07:57:28.472Z,97470.97
2022-11-09T07:59:56.530Z,97469.81
2022-11-09T08:02:23.128Z,97475.59
2022-11-09T08:04:49.695Z,97464.81
2022-11-09T08:07:16.264Z,97467.06
2022-11-09T08:09:42.854Z,97455.91
2022-11-09T08:12:09.393Z,97454.66
2022-11-09T08:14:35.985Z,97449.22
2022-11-09T08:17:03.908Z,97453.50
2022-11-09T08:19:30.479Z,97448.19
2022-11-09T08:21:57.066Z,97445.09
2022-11-09T08:24:23.668Z,97441.75
2022-11-09T08:26:50.224Z,97448.94
2022-11-09T08:29:16.779Z,97458.56
2022-11-09T08:31:43.380Z,97457.47
2022-11-09T08:34:13.060Z,97459.00
2022-11-09T08:36:39.630Z,97462.66
2022-11-09T08:39:06.284Z,97470.25
2022-11-09T08:41:32.841Z,97463.59
2022-11-09T08:43:59.427Z,97472.56
2022-11-09T08:46:26.081Z,97451.53
2022-11-09T08:48:52.639Z,97466.09
2022-11-09T08:51:20.670Z,97466.31
2022-11-09T08:53:47.320Z,97468.19
2022-11-09T08:56:13.891Z,97480.31
2022-11-09T08:58:40.450Z,97476.69
2022-11-09T09:01:12.288Z,97464.91
2022-11-09T09:03:42.044Z,97456.78
2022-11-09T09:06:08.853Z,97452.47
2022-11-09T09:08:36.795Z,97452.88
2022-11-09T09:11:03.802Z,97457.44
2022-11-09T09:13:30.611Z,97456.25
2022-11-09T09:15:57.291Z,97464.69
2022-11-09T09:18:24.310Z,97462.31
2022-11-09T09:20:50.956Z,97466.03
2022-11-09T09:23:17.509Z,97479.66
2022-11-09T09:25:45.437Z,97474.22
2022-11-09T09:28:11.978Z,97479.47
2022-11-09T09:30:38.580Z,97478.09
2022-11-09T09:33:05.155Z,97465.94
2022-11-09T09:35:31.716Z,97467.22
2022-11-09T09:37:58.361Z,97462.22
2022-11-09T09:40:30.532Z,97468.84
2022-11-09T09:42:58.636Z,97470.50
2022-11-09T09:45:29.844Z,97492.06
2022-11-09T09:48:00.398Z,97482.28
2022-11-09T09:50:29.991Z,97478.84
2022-11-09T09:53:22.747Z,97476.44
2022-11-09T09:55:53.062Z,97483.66
2022-11-09T09:58:25.397Z,97473.34
2022-11-09T10:00:54.795Z,97479.38
2022-11-09T10:03:21.522Z,97484.56
2022-11-09T10:05:56.951Z,97476.38
2022-11-09T10:08:37.542Z,97480.47
2022-11-09T10:11:14.635Z,97485.88
2022-11-09T10:14:15.936Z,97487.00
2022-11-09T10:16:51.924Z,97478.81
2022-11-09T10:19:30.196Z,97480.97
2022-11-09T10:22:05.517Z,97477.69
2022-11-09T10:24:58.572Z,97477.22
2022-11-09T10:27:35.352Z,97461.22
2022-11-09T10:30:11.887Z,97456.13
2022-11-09T10:32:38.919Z,97453.31
2022-11-09T10:35:15.427Z,97455.88
2022-11-09T10:37:43.706Z,97445.75
2022-11-09T10:40:22.560Z,97439.00
2022-11-09T10:42:50.695Z,97429.22
2022-11-09T10:45:28.155Z,97427.59
2022-11-09T10:47:55.169Z,97423.28
2022-11-09T10:50:27.754Z,97418.50
2022-11-09T10:53:08.398Z,97424.00
2022-11-09T10:55:35.170Z,97427.41
2022-11-09T10:58:11.714Z,97423.91
2022-11-09T11:00:56.775Z,97428.28
2022-11-09T11:03:24.759Z,97420.34
2022-11-09T11:05:57.248Z,97419.50
2022-11-09T11:08:31.276Z,97412.75
2022-11-09T11:11:33.256Z,97403.13
2022-11-09T11:14:12.505Z,97401.88
2022-11-09T11:16:42.131Z,97401.88
2022-11-09T11:19:35.528Z,97403.31
2022-11-09T11:22:20.523Z,97391.22
2022-11-09T11:24:53.745Z,97391.44
2022-11-09T11:27:24.660Z,97392.84
2022-11-09T11:29:55.985Z,97389.34
2022-11-09T11:32:24.672Z,97391.94
2022-11-09T11:35:00.400Z,97387.53
2022-11-09T11:37:39.123Z,97389.47
2022-11-09T11:40:13.217Z,97391.69
2022-11-09T11:43:15.369Z,97384.97
2022-11-09T11:45:44.190Z,97391.94
2022-11-09T11:48:29.085Z,97382.78
2022-11-09T11:51:02.049Z,97380.13
2022-11-09T11:53:43.921Z,97379.63
2022-11-09T11:56:22.275Z,97378.56
2022-11-09T11:59:05.523Z,97370.75
2022-11-09T12:01:44.108Z,97377.13
2022-11-09T12:04:37.169Z,97378.50
2022-11-09T12:07:14.810Z,97381.69
2022-11-09T12:09:56.419Z,97367.00
2022-11-09T12:12:33.428Z,97359.06
2022-11-09T12:15:17.419Z,97360.22
2022-11-09T12:17:54.696Z,97365.25
2022-11-09T12:20:29.192Z,97363.72
2022-11-09T12:23:15.180Z,97367.03
2022-11-09T12:25:46.662Z,97359.31
2022-11-09T12:28:27.549Z,97357.47
2022-11-09T12:31:04.694Z,97357.25
2022-11-09T12:33:43.487Z,97355.50
2022-11-09T12:36:17.921Z,97362.47
2022-11-09T12:38:54.423Z,97352.00
2022-11-09T12:41:24.761Z,97358.66
2022-11-09T12:43:56.267Z,97360.28
2022-11-09T12:46:30.717Z,97356.22
2022-11-09T12:49:01.743Z,97343.53
2022-11-09T12:51:30.724Z,97344.78
2022-11-09T12:53:58.935Z,97336.81
2022-11-09T12:56:29.344Z,97329.63
2022-11-09T12:59:19.853Z,97327.16
2022-11-09T13:01:52.536Z,97330.63
2022-11-09T13:04:21.755Z,97331.06
2022-11-09T13:07:19.701Z,97324.00
2022-11-09T13:09:54.094Z,97326.25
2022-11-09T13:12:32.103Z,97338.22
2022-11-09T13:15:13.179Z,97334.97
2022-11-09T13:17:58.805Z,97335.16
2022-11-09T13:20:55.512Z,97329.81
2022-11-09T13:23:59.244Z,97328.19
2022-11-09T13:26:24.953Z,97324.91
2022-11-09T13:29:07.830Z,97333.00
2022-11-09T13:32:20.285Z,97337.31
2022-11-09T13:34:48.151Z,97339.69
2022-11-09T13:37:47.313Z,97333.72
2022-11-09T13:40:41.244Z,97334.47
2022-11-09T13:43:19.765Z,97341.34
2022-11-09T13:45:49.420Z,97341.94
2022-11-09T13:48:39.419Z,97362.00
2022-11-09T13:51:08.689Z,97356.13
2022-11-09T13:53:53.592Z,97351.13
2022-11-09T13:56:28.135Z,97345.28
2022-11-09T13:58:57.434Z,97355.94
2022-11-09T14:01:37.049Z,97365.22
2022-11-09T14:04:05.147Z,97363.09
2022-11-09T14:06:33.155Z,97375.47
2022-11-09T14:09:00.981Z,97376.31
2022-11-09T14:11:57.700Z,97375.34
2022-11-09T14:14:44.681Z,97369.22
2022-11-09T14:17:20.690Z,97371.50
2022-11-09T14:19:58.441Z,97371.69
2022-11-09T14:22:25.042Z,97377.31
2022-11-09T14:24:51.642Z,97377.81
2022-11-09T14:27:21.510Z,97380.88
2022-11-09T14:29:51.486Z,97374.25
2022-11-09T14:32:30.005Z,97371.88
2022-11-09T14:35:21.470Z,97367.50
2022-11-09T14:37:48.665Z,97366.88
2022-11-09T14:40:20.330Z,97369.53
2022-11-09T14:42:51.893Z,97358.06
2022-11-09T14:45:19.341Z,97368.00
2022-11-09T14:47:48.513Z,97370.53
2022-11-09T14:50:19.871Z,97375.16
2022-11-09T14:52:47.051Z,97372.41
2022-11-09T14:55:15.975Z,97376.41
2022-11-09T14:57:44.146Z,97379.03
2022-11-09T15:00:44.685Z,97368.38
2022-11-09T15:03:23.723Z,97369.09
2022-11-09T15:05:50.688Z,97377.97
2022-11-09T15:08:21.329Z,97372.56
2022-11-09T15:10:49.473Z,97375.59
2022-11-09T15:13:16.378Z,97380.28
2022-11-09T15:15:50.886Z,97379.56
2022-11-09T15:18:20.782Z,97375.31
2022-11-09T15:20:47.700Z,97393.31
2022-11-09T15:23:37.205Z,97385.84
2022-11-09T15:26:03.849Z,97389.53
2022-11-09T15:28:31.370Z,97389.88
2022-11-09T15:31:13.564Z,97394.09
2022-11-09T15:33:46.132Z,97391.81
2022-11-09T15:36:29.289Z,97400.78
2022-11-09T15:39:00.764Z,97401.69
2022-11-09T15:41:28.165Z,97412.28
2022-11-09T15:43:55.039Z,97402.59
2022-11-09T15:46:25.431Z,97410.09
2022-11-09T15:48:52.228Z,97411.16
2022-11-09T15:51:19.431Z,97402.88
2022-11-09T15:53:46.090Z,97395.34
2022-11-09T15:56:17.276Z,97401.44
2022-11-09T15:58:44.618Z,97389.97
2022-11-09T16:01:11.315Z,97386.69
2022-11-09T16:03:39.234Z,97388.47
2022-11-09T16:06:06.269Z,97390.34
2022-11-09T16:08:32.831Z,97398.69
2022-11-09T16:11:03.425Z,97405.56
2022-11-09T16:13:29.978Z,97410.91
2022-11-09T16:16:02.293Z,97417.72
2022-11-09T16:18:29.130Z,97416.88
2022-11-09T16:20:57.350Z,97419.94
2022-11-09T16:23:24.077Z,97421.28
2022-11-09T16:25:50.619Z,97414.41
2022-11-09T16:28:17.447Z,97424.69
2022-11-09T16:30:46.811Z,97427.75
2022-11-09T16:33:13.725Z,97418.41
2022-11-09T16:35:40.357Z,97417.38
2022-11-09T16:38:08.460Z,97425.41
2022-11-09T16:40:37.081Z,97442.03
2022-11-09T16:43:03.852Z,97439.72
2022-11-09T16:45:33.334Z,97432.78
2022-11-09T16:48:03.785Z,97433.31
2022-11-09T16:50:30.505Z,97445.16
2022-11-09T16:52:57.068Z,97440.53
2022-11-09T16:55:25.094Z,97448.03
2022-11-09T16:57:51.643Z,97451.09
2022-11-09T17:00:18.614Z,97458.72
2022-11-09T17:02:45.185Z,97468.50
2022-11-09T17:05:11.709Z,97466.16
2022-11-09T17:07:42.555Z,97476.34
2022-11-09T17:10:10.797Z,97465.41
2022-11-09T17:12:38.932Z,97479.25
2022-11-09T17:15:06.641Z,97480.59
2022-11-09T17:17:33.260Z,97484.22
2022-11-09T17:19:59.837Z,97477.66
2022-11-09T17:22:26.376Z,97488.56
2022-11-09T17:24:52.944Z,97485.84
2022-11-09T17:27:19.509Z,97477.34
2022-11-09T17:29:47.589Z,97469.91
2022-11-09T17:32:14.473Z,97476.19
2022-11-09T17:34:41.053Z,97492.44
2022-11-09T17:37:07.603Z,97483.75
2022-11-09T17:39:34.157Z,97482.13
2022-11-09T17:42:00.728Z,97486.19
2022-11-09T17:44:27.293Z,97488.78
2022-11-09T17:46:55.261Z,97489.63
2022-11-09T17:49:21.797Z,97492.56
2022-11-09T17:51:48.381Z,97500.66
2022-11-09T17:54:15.231Z,97500.06
2022-11-09T17:56:41.914Z,97511.38
2022-11-09T17:59:08.460Z,97509.56
2022-11-09T18:01:40.512Z,97510.13
2022-11-09T18:04:10.481Z,97495.53
2022-11-09T18:06:38.018Z,97501.34
2022-11-09T18:09:40.128Z,97501.66
2022-11-09T18:11:51.620Z,97500.56
2022-11-09T18:14:18.444Z,97499.97
2022-11-09T18:16:45.019Z,97494.72
2022-11-09T18:19:13.046Z,97497.47
2022-11-09T18:21:39.635Z,97501.50
2022-11-09T18:24:07.132Z,97508.72
2022-11-09T18:26:33.720Z,97504.63
2022-11-09T18:29:00.320Z,97506.63
2022-11-09T18:31:27.164Z,97506.94
2022-11-09T18:33:53.696Z,97510.50
2022-11-09T18:36:22.390Z,97525.91
2022-11-09T18:38:49.257Z,97522.34
2022-11-09T18:41:17.735Z,97519.28
2022-11-09T18:43:44.651Z,97519.75
2022-11-09T18:46:13.108Z,97522.47
2022-11-09T18:48:39.734Z,97526.91
2022-11-09T18:51:07.982Z,97536.69
2022-11-09T18:53:37.986Z,97540.34
2022-11-09T18:56:07.158Z,97533.50
2022-11-09T18:58:34.667Z,97529.84
2022-11-09T19:01:03.370Z,97526.38
2022-11-09T19:03:30.350Z,97514.22
2022-11-09T19:05:57.132Z,97507.38
2022-11-09T19:08:24.284Z,97513.13
2022-11-09T19:10:52.610Z,97519.91
2022-11-09T19:13:19.165Z,97529.47
2022-11-09T19:15:45.996Z,97539.22
2022-11-09T19:18:12.544Z,97539.56
2022-11-09T19:20:39.112Z,97536.66
2022-11-09T19:23:05.716Z,97544.88
2022-11-09T19:25:32.249Z,97547.69
2022-11-09T19:28:00.180Z,97545.22
2022-11-09T19:30:26.711Z,97549.91
2022-11-09T19:32:53.267Z,97547.69
2022-11-09T19:35:25.611Z,97560.81
2022-11-09T19:37:53.952Z,97566.34
2022-11-09T19:40:21.111Z,97566.41
2022-11-09T19:42:47.674Z,97554.50
2022-11-09T19:45:16.080Z,97541.84
2022-11-09T19:47:42.853Z,97552.94
2022-11-09T19:50:09.653Z,97548.84
2022-11-09T19:52:36.235Z,97544.97
2022-11-09T19:55:03.093Z,97561.75
2022-11-09T19:57:29.649Z,97561.69
2022-11-09T19:59:56.300Z,97559.53
2022-11-09T20:02:24.581Z,97574.78
2022-11-09T20:04:51.163Z,97581.72
2022-11-09T20:07:18.209Z,97596.84
2022-11-09T20:09:44.772Z,97586.41
2022-11-09T20:12:11.944Z,97595.84
2022-11-09T20:14:38.488Z,97599.97
2022-11-09T20:17:05.065Z,97607.53
2022-11-09T20:19:32.977Z,97613.69
2022-11-09T20:21:59.764Z,97616.91
2022-11-09T20:24:26.309Z,97617.88
2022-11-09T20:26:52.863Z,97615.22
2022-11-09T20:29:19.402Z,97626.53
2022-11-09T20:31:46.128Z,97618.03
2022-11-09T20:34:12.714Z,97623.06
2022-11-09T20:36:40.604Z,97623.34
2022-11-09T20:39:07.164Z,97624.69
2022-11-09T20:41:33.722Z,97625.38
2022-11-09T20:44:00.292Z,97631.00
2022-11-09T20:46:30.000Z,97636.81
2022-11-09T20:49:01.080Z,97634.13
2022-11-09T20:51:27.943Z,97637.34
2022-11-09T20:53:55.849Z,97650.56
2022-11-09T20:56:22.393Z,97644.38
2022-11-09T20:58:48.964Z,97650.25
2022-11-09T21:01:17.539Z,97646.94
2022-11-09T21:03:45.429Z,97649.72
2022-11-09T21:06:13.249Z,97648.59
2022-11-09T21:08:43.217Z,97649.44
2022-11-09T21:11:11.434Z,97650.78
2022-11-09T21:13:38.208Z,97643.91
2022-11-09T21:16:06.150Z,97648.59
2022-11-09T21:18:32.815Z,97658.78
2022-11-09T21:21:04.352Z,97663.13
2022-11-09T21:23:31.050Z,97660.53
2022-11-09T21:26:00.039Z,97663.00
2022-11-09T21:28:29.085Z,97672.81
2022-11-09T21:31:00.101Z,97674.84
2022-11-09T21:33:26.638Z,97664.44
2022-11-09T21:35:53.184Z,97677.66
2022-11-09T21:38:20.028Z,97680.41
2022-11-09T21:40:46.886Z,97675.47
2022-11-09T21:43:13.521Z,97672.00
2022-11-09T21:45:41.467Z,97680.41
2022-11-09T21:48:08.361Z,97677.13
2022-11-09T21:50:35.025Z,97680.47
2022-11-09T21:53:01.846Z,97684.88
2022-11-09T21:55:28.415Z,97681.59
2022-11-09T21:57:54.978Z,97691.56
2022-11-09T22:00:21.776Z,97690.44
2022-11-09T22:02:49.661Z,97679.38
2022-11-09T22:05:21.765Z,97689.22
2022-11-09T22:07:49.403Z,97683.22
2022-11-09T22:10:16.272Z,97685.16
2022-11-09T22:12:42.807Z,97676.34
2022-11-09T22:15:10.055Z,97683.81
2022-11-09T22:17:36.577Z,97678.38
2022-11-09T22:20:05.350Z,97679.81
2022-11-09T22:22:32.024Z,97678.50
2022-11-09T22:24:58.590Z,97686.78
2022-11-09T22:27:25.238Z,97685.47
2022-11-09T22:29:51.954Z,97682.78
2022-11-09T22:32:18.490Z,97693.47
2022-11-09T22:34:45.094Z,97689.41
2022-11-09T22:37:13.016Z,97683.81
2022-11-09T22:39:44.363Z,97691.03
2022-11-09T22:42:13.624Z,97682.22
2022-11-09T22:44:40.193Z,97680.75
2022-11-09T22:47:06.730Z,97694.84
2022-11-09T22:49:33.311Z,97691.22
2022-11-09T22:51:59.874Z,97705.78
2022-11-09T22:54:27.803Z,97690.88
2022-11-09T22:56:54.354Z,97705.38
2022-11-09T22:59:20.899Z,97696.47
2022-11-09T23:01:47.475Z,97696.53
2022-11-09T23:04:14.065Z,97702.63
2022-11-09T23:06:40.690Z,97704.16
2022-11-09T23:09:07.430Z,97705.03
2022-11-09T23:11:35.401Z,97724.94
2022-11-09T23:14:01.964Z,97722.78
2022-11-09T23:16:28.606Z,97728.66
2022-11-09T23:18:56.348Z,97730.84
2022-11-09T23:21:25.982Z,97732.00
2022-11-09T23:23:55.004Z,97719.63
2022-11-09T23:26:22.547Z,97732.53
2022-11-09T23:28:50.749Z,97730.84
2022-11-09T23:31:19.126Z,97731.97
2022-11-09T23:33:47.794Z,97727.50
2022-11-09T23:36:14.361Z,97735.19
2022-11-09T23:38:40.891Z,97740.22
2022-11-09T23:41:08.876Z,97744.69
2022-11-09T23:43:36.325Z,97742.19
2022-11-09T23:46:06.152Z,97750.72
2022-11-09T23:48:32.910Z,97755.06
2022-11-09T23:51:00.483Z,97757.25
2022-11-09T23:53:28.438Z,97759.63
2022-11-09T23:55:55.082Z,97777.91
2022-11-09T23:58:21.645Z,97778.63
